createdAt,value
2017-08-27T00:01:53.536Z,20.26
2017-08-27T00:04:19.968Z,20.33
2017-08-27T00:06:47.078Z,20.33
2017-08-27T00:09:13.554Z,20.29
2017-08-27T00:11:40.092Z,20.27
2017-08-27T00:14:06.527Z,20.19
2017-08-27T00:16:32.961Z,20.18
2017-08-27T00:18:59.396Z,20.29
2017-08-27T00:21:25.832Z,20.31
2017-08-27T00:23:52.986Z,20.30
2017-08-27T00:26:19.478Z,20.30
2017-08-27T00:28:45.956Z,20.29
2017-08-27T00:31:12.392Z,20.38
2017-08-27T00:33:38.825Z,20.39
2017-08-27T00:36:05.371Z,20.40
2017-08-27T00:38:31.800Z,20.45
2017-08-27T00:40:58.951Z,20.43
2017-08-27T00:43:25.386Z,20.37
2017-08-27T00:45:51.922Z,20.31
2017-08-27T00:48:18.376Z,20.23
2017-08-27T00:50:44.894Z,20.18
2017-08-27T00:53:11.328Z,20.13
2017-08-27T00:55:37.764Z,20.12
2017-08-27T00:58:05.018Z,20.07
2017-08-27T01:00:31.450Z,20.02
2017-08-27T01:02:57.992Z,19.90
2017-08-27T01:05:24.529Z,19.79
2017-08-27T01:07:50.917Z,19.76
2017-08-27T01:10:17.501Z,19.72
2017-08-27T01:12:43.894Z,19.57
2017-08-27T01:15:11.096Z,19.46
2017-08-27T01:17:37.521Z,19.38
2017-08-27T01:20:03.908Z,19.40
2017-08-27T01:22:30.392Z,19.49
2017-08-27T01:24:56.890Z,19.52
2017-08-27T01:27:23.318Z,19.56
2017-08-27T01:29:49.797Z,19.52
2017-08-27T01:32:16.978Z,19.56
2017-08-27T01:34:43.487Z,19.57
2017-08-27T01:37:09.873Z,19.57
2017-08-27T01:39:36.340Z,19.57
2017-08-27T01:42:02.783Z,19.58
2017-08-27T01:44:29.430Z,19.60
2017-08-27T01:46:55.866Z,19.58
2017-08-27T01:49:23.072Z,19.39
2017-08-27T01:51:49.554Z,19.53
2017-08-27T01:54:15.941Z,19.57
2017-08-27T01:56:42.427Z,19.58
2017-08-27T01:59:08.812Z,19.55
2017-08-27T02:01:35.294Z,19.50
2017-08-27T02:04:01.730Z,19.44
2017-08-27T02:06:28.880Z,19.45
2017-08-27T02:08:55.317Z,19.44
2017-08-27T02:11:21.726Z,19.40
2017-08-27T02:13:48.185Z,19.35
2017-08-27T02:16:14.928Z,19.26
2017-08-27T02:18:41.363Z,19.21
2017-08-27T02:21:07.798Z,19.16
2017-08-27T02:23:34.949Z,19.12
2017-08-27T02:26:01.450Z,19.06
2017-08-27T02:28:27.922Z,18.92
2017-08-27T02:30:54.359Z,18.92
2017-08-27T02:33:20.788Z,18.93
2017-08-27T02:35:47.330Z,18.76
2017-08-27T02:38:13.765Z,18.96
2017-08-27T02:40:40.985Z,19.01
2017-08-27T02:43:07.498Z,19.07
2017-08-27T02:45:33.947Z,19.05
2017-08-27T02:48:00.452Z,19.02
2017-08-27T02:50:26.951Z,18.97
2017-08-27T02:52:53.393Z,18.90
2017-08-27T02:55:20.043Z,19.00
2017-08-27T02:57:47.090Z,19.06
2017-08-27T03:00:13.522Z,19.04
2017-08-27T03:02:39.957Z,19.00
2017-08-27T03:05:06.515Z,18.94
2017-08-27T03:07:32.873Z,18.89
2017-08-27T03:09:59.363Z,18.77
2017-08-27T03:12:25.759Z,18.63
2017-08-27T03:14:53.053Z,18.63
2017-08-27T03:17:19.487Z,18.60
2017-08-27T03:19:45.921Z,18.53
2017-08-27T03:22:12.512Z,18.49
2017-08-27T03:24:38.997Z,18.42
2017-08-27T03:27:05.438Z,18.34
2017-08-27T03:29:31.968Z,18.27
2017-08-27T03:31:59.079Z,18.24
2017-08-27T03:34:25.541Z,18.27
2017-08-27T03:36:51.933Z,18.32
2017-08-27T03:39:18.424Z,18.24
2017-08-27T03:41:44.860Z,18.10
2017-08-27T03:44:11.296Z,18.13
2017-08-27T03:46:37.729Z,18.17
2017-08-27T03:49:04.880Z,18.22
2017-08-27T03:51:31.315Z,18.23
2017-08-27T03:53:57.751Z,18.25
2017-08-27T03:56:24.287Z,18.28
2017-08-27T03:58:50.679Z,18.34
2017-08-27T04:01:17.135Z,18.38
2017-08-27T04:03:43.592Z,18.39
2017-08-27T04:06:10.844Z,18.40
2017-08-27T04:08:37.281Z,18.43
2017-08-27T04:11:03.678Z,18.45
2017-08-27T04:13:30.151Z,18.53
2017-08-27T04:15:56.685Z,18.58
2017-08-27T04:18:23.124Z,18.70
2017-08-27T04:20:49.558Z,18.85
2017-08-27T04:23:16.812Z,18.93
2017-08-27T04:25:43.351Z,19.04
2017-08-27T04:28:09.785Z,18.97
2017-08-27T04:30:36.221Z,19.15
2017-08-27T04:33:02.656Z,19.19
2017-08-27T04:35:29.144Z,19.29
2017-08-27T04:37:55.627Z,19.38
2017-08-27T04:40:22.778Z,19.43
2017-08-27T04:42:49.209Z,19.50
2017-08-27T04:45:15.750Z,19.56
2017-08-27T04:47:42.185Z,19.54
2017-08-27T04:50:08.621Z,19.53
2017-08-27T04:52:35.074Z,19.62
2017-08-27T04:55:01.563Z,19.71
2017-08-27T04:57:28.736Z,19.79
2017-08-27T04:59:55.104Z,19.85
2017-08-27T05:02:21.638Z,19.93
2017-08-27T05:04:48.141Z,19.94
2017-08-27T05:07:14.582Z,20.02
2017-08-27T05:09:41.058Z,20.15
2017-08-27T05:12:07.542Z,20.25
2017-08-27T05:14:34.713Z,20.37
2017-08-27T05:17:01.103Z,20.44
2017-08-27T05:19:27.480Z,20.61
2017-08-27T05:21:53.914Z,20.68
2017-08-27T05:24:20.349Z,20.78
2017-08-27T05:26:46.777Z,20.91
2017-08-27T05:29:13.267Z,21.01
2017-08-27T05:31:40.471Z,21.12
2017-08-27T05:34:06.906Z,21.17
2017-08-27T05:36:33.340Z,21.20
2017-08-27T05:38:59.777Z,21.28
2017-08-27T05:41:26.156Z,21.31
2017-08-27T05:43:52.544Z,21.38
2017-08-27T05:46:19.082Z,21.49
2017-08-27T05:48:46.233Z,21.59
2017-08-27T05:51:12.628Z,21.73
2017-08-27T05:53:39.051Z,21.87
2017-08-27T05:56:05.498Z,21.98
2017-08-27T05:58:31.954Z,22.10
2017-08-27T06:00:58.406Z,22.24
2017-08-27T06:03:24.838Z,22.33
2017-08-27T06:05:52.055Z,22.41
2017-08-27T06:08:18.530Z,22.49
2017-08-27T06:10:44.940Z,22.58
2017-08-27T06:13:11.420Z,22.76
2017-08-27T06:15:37.937Z,22.84
2017-08-27T06:18:04.476Z,22.90
2017-08-27T06:20:30.911Z,22.95
2017-08-27T06:22:58.121Z,23.13
2017-08-27T06:25:24.548Z,23.19
2017-08-27T06:27:50.988Z,23.19
2017-08-27T06:30:17.469Z,23.33
2017-08-27T06:32:43.907Z,23.27
2017-08-27T06:35:10.441Z,23.53
2017-08-27T06:37:36.833Z,23.69
2017-08-27T06:40:04.132Z,23.91
2017-08-27T06:42:30.567Z,24.04
2017-08-27T06:44:57.052Z,24.17
2017-08-27T06:47:23.489Z,24.28
2017-08-27T06:49:49.972Z,24.44
2017-08-27T06:52:16.510Z,24.61
2017-08-27T06:54:43.049Z,24.68
2017-08-27T06:57:10.096Z,24.78
2017-08-27T06:59:36.531Z,24.81
2017-08-27T07:02:03.071Z,24.90
2017-08-27T07:04:29.604Z,25.08
2017-08-27T07:06:56.040Z,25.09
2017-08-27T07:09:22.494Z,25.29
2017-08-27T07:11:48.866Z,25.46
2017-08-27T07:14:16.153Z,25.61
2017-08-27T07:16:42.599Z,25.67
2017-08-27T07:19:09.014Z,25.82
2017-08-27T07:21:35.469Z,26.02
2017-08-27T07:24:01.924Z,26.03
2017-08-27T07:26:28.441Z,26.18
2017-08-27T07:28:54.875Z,26.38
2017-08-27T07:31:22.133Z,26.44
2017-08-27T07:33:48.565Z,26.71
2017-08-27T07:36:15.055Z,26.78
2017-08-27T07:38:41.632Z,26.94
2017-08-27T07:41:08.074Z,27.15
2017-08-27T07:43:34.511Z,27.30
2017-08-27T07:46:01.055Z,27.44
2017-08-27T07:48:28.198Z,27.57
2017-08-27T07:50:54.637Z,27.71
2017-08-27T07:53:21.284Z,27.83
2017-08-27T07:55:47.810Z,27.91
2017-08-27T07:58:14.195Z,28.08
2017-08-27T08:00:40.680Z,28.21
2017-08-27T08:03:07.063Z,28.32
2017-08-27T08:05:34.368Z,28.46
2017-08-27T08:08:00.806Z,28.50
2017-08-27T08:10:27.199Z,28.66
2017-08-27T08:12:53.674Z,28.80
2017-08-27T08:15:20.211Z,28.92
2017-08-27T08:17:46.645Z,29.01
2017-08-27T08:20:13.083Z,29.08
2017-08-27T08:22:40.236Z,29.09
2017-08-27T08:25:06.769Z,29.13
2017-08-27T08:27:33.207Z,29.27
2017-08-27T08:29:59.636Z,29.41
2017-08-27T08:32:26.023Z,29.52
2017-08-27T08:34:52.508Z,29.61
2017-08-27T08:37:18.895Z,29.69
2017-08-27T08:39:46.198Z,29.74
2017-08-27T08:42:12.633Z,29.78
2017-08-27T08:44:39.068Z,29.84
2017-08-27T08:47:05.503Z,29.96
2017-08-27T08:49:31.897Z,30.04
2017-08-27T08:51:58.320Z,30.12
2017-08-27T08:54:24.809Z,30.22
2017-08-27T08:56:51.958Z,30.24
2017-08-27T08:59:18.394Z,30.29
2017-08-27T09:01:44.829Z,30.43
2017-08-27T09:04:11.264Z,30.37
2017-08-27T09:06:37.653Z,30.41
2017-08-27T09:09:04.139Z,30.46
2017-08-27T09:11:30.568Z,30.58
2017-08-27T09:13:57.684Z,30.57
2017-08-27T09:16:24.155Z,30.55
2017-08-27T09:18:50.540Z,30.66
2017-08-27T09:21:17.011Z,30.70
2017-08-27T09:23:43.455Z,30.77
2017-08-27T09:26:10.304Z,30.90
2017-08-27T09:28:36.844Z,31.02
2017-08-27T09:31:03.212Z,31.09
2017-08-27T09:33:29.701Z,31.13
2017-08-27T09:35:56.249Z,30.90
2017-08-27T09:38:22.684Z,31.08
2017-08-27T09:40:49.074Z,31.21
2017-08-27T09:43:15.488Z,31.44
2017-08-27T09:45:42.043Z,31.41
2017-08-27T09:48:08.513Z,31.42
2017-08-27T09:50:34.953Z,31.53
2017-08-27T09:53:01.396Z,31.50
2017-08-27T09:55:27.897Z,31.49
2017-08-27T09:57:54.371Z,31.71
2017-08-27T10:00:20.802Z,31.69
2017-08-27T10:02:47.259Z,31.67
2017-08-27T10:05:13.774Z,31.75
2017-08-27T10:07:40.210Z,31.88
2017-08-27T10:10:06.699Z,31.81
2017-08-27T10:12:34.205Z,31.66
2017-08-27T10:15:00.691Z,31.63
2017-08-27T10:17:27.148Z,31.73
2017-08-27T10:19:53.612Z,31.79
2017-08-27T10:22:20.047Z,31.78
2017-08-27T10:24:46.585Z,31.62
2017-08-27T10:27:13.021Z,31.86
2017-08-27T10:29:40.172Z,31.91
2017-08-27T10:32:06.606Z,31.84
2017-08-27T10:34:33.091Z,31.90
2017-08-27T10:36:59.578Z,32.04
2017-08-27T10:39:26.014Z,31.93
2017-08-27T10:41:52.454Z,31.93
2017-08-27T10:44:18.833Z,31.81
2017-08-27T10:46:46.141Z,31.91
2017-08-27T10:49:12.524Z,31.99
2017-08-27T10:51:39.008Z,32.13
2017-08-27T10:54:05.465Z,32.19
2017-08-27T10:56:31.957Z,32.24
2017-08-27T10:58:58.437Z,32.22
2017-08-27T11:01:24.954Z,32.35
2017-08-27T11:03:52.104Z,32.29
2017-08-27T11:06:18.641Z,32.19
2017-08-27T11:08:45.076Z,32.33
2017-08-27T11:11:11.599Z,32.34
2017-08-27T11:13:38.046Z,32.51
2017-08-27T11:16:04.587Z,32.46
2017-08-27T11:18:31.021Z,32.41
2017-08-27T11:20:58.274Z,32.50
2017-08-27T11:23:24.710Z,32.74
2017-08-27T11:25:51.237Z,32.95
2017-08-27T11:28:17.675Z,33.20
2017-08-27T11:30:44.119Z,33.75
2017-08-27T11:33:10.538Z,34.71
2017-08-27T11:35:37.090Z,35.58
2017-08-27T11:38:04.137Z,36.52
2017-08-27T11:40:30.569Z,37.22
2017-08-27T11:42:57.007Z,38.16
2017-08-27T11:45:23.544Z,38.74
2017-08-27T11:47:49.981Z,39.23
2017-08-27T11:50:16.520Z,39.63
2017-08-27T11:52:42.970Z,39.77
2017-08-27T11:55:10.207Z,39.71
2017-08-27T11:57:36.642Z,39.60
2017-08-27T12:00:03.077Z,40.08
2017-08-27T12:02:29.612Z,40.85
2017-08-27T12:04:56.047Z,41.22
2017-08-27T12:07:22.434Z,41.98
2017-08-27T12:09:48.917Z,42.37
2017-08-27T12:12:16.069Z,42.76
2017-08-27T12:14:42.556Z,43.46
2017-08-27T12:17:08.985Z,43.50
2017-08-27T12:19:35.458Z,43.13
2017-08-27T12:22:01.911Z,42.94
2017-08-27T12:24:28.448Z,43.64
2017-08-27T12:26:54.885Z,44.53
2017-08-27T12:29:22.136Z,44.67
2017-08-27T12:31:48.574Z,44.98
2017-08-27T12:34:15.030Z,45.64
2017-08-27T12:36:41.544Z,46.04
2017-08-27T12:39:07.981Z,46.23
2017-08-27T12:41:34.537Z,46.68
2017-08-27T12:44:00.992Z,46.79
2017-08-27T12:46:28.186Z,47.00
2017-08-27T12:48:54.598Z,47.08
2017-08-27T12:51:21.023Z,47.08
2017-08-27T12:53:47.510Z,47.14
2017-08-27T12:56:14.149Z,47.61
2017-08-27T12:58:40.536Z,47.88
2017-08-27T13:01:06.916Z,48.27
2017-08-27T13:03:34.166Z,48.42
2017-08-27T13:06:00.708Z,47.53
2017-08-27T13:08:27.100Z,47.46
2017-08-27T13:10:53.621Z,47.46
2017-08-27T13:13:20.116Z,46.79
2017-08-27T13:15:46.653Z,46.45
2017-08-27T13:18:13.089Z,46.84
2017-08-27T13:20:40.218Z,47.41
2017-08-27T13:23:06.660Z,48.28
2017-08-27T13:25:33.212Z,48.85
2017-08-27T13:27:59.647Z,49.09
2017-08-27T13:30:26.082Z,49.41
2017-08-27T13:32:52.486Z,49.85
2017-08-27T13:35:18.951Z,49.82
2017-08-27T13:37:46.103Z,49.61
2017-08-27T13:40:12.504Z,48.94
2017-08-27T13:42:38.973Z,48.98
2017-08-27T13:45:05.459Z,49.07
2017-08-27T13:47:31.920Z,47.99
2017-08-27T13:49:58.363Z,48.00
2017-08-27T13:52:24.815Z,48.52
2017-08-27T13:54:51.968Z,47.36
2017-08-27T13:57:18.504Z,45.21
2017-08-27T13:59:44.938Z,43.83
2017-08-27T14:02:11.373Z,43.14
2017-08-27T14:04:37.808Z,42.51
2017-08-27T14:07:04.244Z,41.29
2017-08-27T14:09:30.677Z,40.43
2017-08-27T14:11:57.833Z,39.80
2017-08-27T14:14:24.266Z,39.19
2017-08-27T14:16:50.702Z,38.62
2017-08-27T14:19:17.093Z,38.12
2017-08-27T14:21:43.569Z,37.72
2017-08-27T14:24:10.004Z,37.20
2017-08-27T14:26:36.441Z,36.52
2017-08-27T14:29:03.648Z,36.29
2017-08-27T14:31:30.133Z,36.11
2017-08-27T14:33:56.587Z,35.99
2017-08-27T14:36:23.101Z,35.80
2017-08-27T14:38:49.535Z,35.47
2017-08-27T14:41:16.036Z,35.22
2017-08-27T14:43:42.459Z,35.03
2017-08-27T14:46:09.661Z,34.97
2017-08-27T14:48:36.094Z,34.86
2017-08-27T14:51:02.528Z,34.52
2017-08-27T14:53:28.909Z,34.57
2017-08-27T14:55:55.401Z,34.32
2017-08-27T14:58:21.835Z,34.21
2017-08-27T15:00:48.270Z,34.03
2017-08-27T15:03:15.419Z,33.99
2017-08-27T15:05:41.958Z,33.99
2017-08-27T15:08:08.470Z,34.00
2017-08-27T15:10:34.929Z,34.00
2017-08-27T15:13:01.365Z,34.02
2017-08-27T15:15:27.799Z,33.98
2017-08-27T15:17:54.250Z,34.00
2017-08-27T15:20:21.436Z,33.98
2017-08-27T15:22:47.875Z,33.89
2017-08-27T15:25:14.350Z,33.83
2017-08-27T15:27:40.767Z,33.66
2017-08-27T15:30:07.284Z,33.74
2017-08-27T15:32:33.729Z,33.66
2017-08-27T15:35:00.201Z,33.62
2017-08-27T15:37:27.315Z,33.55
2017-08-27T15:39:53.684Z,33.48
2017-08-27T15:42:20.119Z,33.46
2017-08-27T15:44:46.657Z,33.38
2017-08-27T15:47:13.095Z,33.29
2017-08-27T15:49:39.526Z,33.21
2017-08-27T15:52:05.962Z,33.10
2017-08-27T15:54:33.318Z,33.03
2017-08-27T15:56:59.753Z,33.01
2017-08-27T15:59:26.187Z,32.94
2017-08-27T16:01:52.639Z,32.87
2017-08-27T16:04:19.112Z,32.81
2017-08-27T16:06:45.595Z,32.74
2017-08-27T16:09:12.030Z,32.67
2017-08-27T16:11:38.467Z,32.60
2017-08-27T16:14:04.899Z,32.52
2017-08-27T16:16:31.439Z,32.43
2017-08-27T16:18:57.823Z,32.31
2017-08-27T16:21:24.306Z,32.23
2017-08-27T16:23:50.742Z,32.14
2017-08-27T16:26:17.279Z,32.03
2017-08-27T16:28:44.320Z,31.69
2017-08-27T16:31:10.711Z,31.87
2017-08-27T16:33:37.158Z,31.77
2017-08-27T16:36:03.626Z,31.66
2017-08-27T16:38:30.068Z,31.57
2017-08-27T16:40:56.505Z,31.45
2017-08-27T16:43:22.906Z,31.32
2017-08-27T16:45:50.191Z,31.15
2017-08-27T16:48:16.580Z,30.94
2017-08-27T16:50:42.960Z,30.82
2017-08-27T16:53:09.395Z,30.70
2017-08-27T16:55:35.928Z,30.62
2017-08-27T16:58:02.465Z,30.57
2017-08-27T17:00:28.903Z,30.42
2017-08-27T17:02:56.058Z,30.30
2017-08-27T17:05:22.598Z,30.15
2017-08-27T17:07:49.083Z,30.13
2017-08-27T17:10:15.566Z,29.99
2017-08-27T17:12:42.002Z,29.88
2017-08-27T17:15:08.540Z,29.71
2017-08-27T17:17:35.008Z,29.64
2017-08-27T17:20:02.331Z,29.52
2017-08-27T17:22:28.765Z,29.44
2017-08-27T17:24:55.287Z,29.32
2017-08-27T17:27:21.683Z,29.17
2017-08-27T17:29:48.170Z,29.02
2017-08-27T17:32:14.602Z,28.94
2017-08-27T17:34:41.092Z,28.87
2017-08-27T17:37:08.294Z,28.73
2017-08-27T17:39:34.731Z,28.65
2017-08-27T17:42:01.127Z,28.49
2017-08-27T17:44:27.600Z,28.44
2017-08-27T17:46:53.999Z,28.39
2017-08-27T17:49:20.470Z,28.24
2017-08-27T17:51:46.856Z,28.18
2017-08-27T17:54:14.155Z,28.11
2017-08-27T17:56:40.593Z,28.04
2017-08-27T17:59:07.030Z,27.93
2017-08-27T18:01:33.462Z,27.84
2017-08-27T18:03:59.897Z,27.74
2017-08-27T18:06:26.437Z,27.70
2017-08-27T18:08:52.875Z,27.58
2017-08-27T18:11:20.023Z,27.49
2017-08-27T18:13:46.458Z,27.40
2017-08-27T18:16:13.004Z,27.31
2017-08-27T18:18:39.428Z,27.20
2017-08-27T18:21:05.864Z,27.11
2017-08-27T18:23:32.269Z,27.09
2017-08-27T18:25:58.836Z,27.06
2017-08-27T18:28:25.987Z,27.00
2017-08-27T18:30:52.424Z,26.89
2017-08-27T18:33:18.858Z,26.81
2017-08-27T18:35:45.395Z,26.70
2017-08-27T18:38:11.829Z,26.67
2017-08-27T18:40:38.266Z,26.64
2017-08-27T18:43:04.801Z,26.61
2017-08-27T18:45:31.953Z,26.56
2017-08-27T18:47:58.387Z,26.43
2017-08-27T18:50:24.823Z,26.36
2017-08-27T18:52:51.257Z,26.35
2017-08-27T18:55:17.795Z,26.32
2017-08-27T18:57:44.197Z,26.30
2017-08-27T19:00:10.665Z,26.23
2017-08-27T19:02:37.718Z,26.12
2017-08-27T19:05:04.252Z,26.06
2017-08-27T19:07:30.687Z,26.01
2017-08-27T19:09:57.072Z,25.94
2017-08-27T19:12:23.659Z,25.89
2017-08-27T19:14:50.197Z,25.79
2017-08-27T19:17:16.631Z,25.71
2017-08-27T19:19:43.680Z,25.62
2017-08-27T19:22:10.116Z,25.60
2017-08-27T19:24:36.697Z,25.59
2017-08-27T19:27:03.090Z,25.60
2017-08-27T19:29:29.503Z,25.52
2017-08-27T19:31:55.943Z,25.43
2017-08-27T19:34:22.364Z,25.32
2017-08-27T19:36:49.530Z,25.18
2017-08-27T19:39:16.080Z,25.01
2017-08-27T19:41:42.506Z,25.04
2017-08-27T19:44:08.951Z,25.09
2017-08-27T19:46:35.385Z,25.12
2017-08-27T19:49:01.769Z,25.05
2017-08-27T19:51:28.237Z,24.95
2017-08-27T19:53:55.351Z,24.85
2017-08-27T19:56:21.739Z,24.72
2017-08-27T19:58:48.174Z,24.64
2017-08-27T20:01:14.610Z,24.59
2017-08-27T20:03:41.047Z,24.54
2017-08-27T20:06:07.684Z,24.52
2017-08-27T20:08:34.119Z,24.53
2017-08-27T20:11:01.265Z,24.51
2017-08-27T20:13:27.705Z,24.49
2017-08-27T20:15:54.140Z,24.40
2017-08-27T20:18:20.576Z,24.29
2017-08-27T20:20:47.013Z,24.25
2017-08-27T20:23:13.445Z,24.29
2017-08-27T20:25:40.004Z,24.08
2017-08-27T20:28:07.094Z,24.10
2017-08-27T20:30:33.572Z,23.99
2017-08-27T20:33:00.004Z,23.98
2017-08-27T20:35:26.542Z,23.93
2017-08-27T20:37:52.975Z,24.02
2017-08-27T20:40:19.414Z,24.05
2017-08-27T20:42:45.809Z,24.01
2017-08-27T20:45:12.981Z,23.98
2017-08-27T20:47:39.431Z,24.00
2017-08-27T20:50:05.867Z,23.96
2017-08-27T20:52:32.302Z,23.97
2017-08-27T20:54:58.841Z,23.89
2017-08-27T20:57:25.276Z,23.72
2017-08-27T20:59:51.712Z,23.63
2017-08-27T21:02:18.983Z,23.61
2017-08-27T21:04:45.447Z,23.64
2017-08-27T21:07:11.936Z,23.55
2017-08-27T21:09:38.475Z,23.38
2017-08-27T21:12:04.908Z,23.27
2017-08-27T21:14:31.444Z,23.28
2017-08-27T21:16:57.982Z,23.30
2017-08-27T21:19:25.072Z,23.32
2017-08-27T21:21:51.572Z,23.24
2017-08-27T21:24:18.026Z,23.16
2017-08-27T21:26:44.438Z,23.16
2017-08-27T21:29:10.976Z,23.18
2017-08-27T21:31:37.375Z,23.20
2017-08-27T21:34:03.743Z,23.14
2017-08-27T21:36:30.996Z,22.99
2017-08-27T21:38:57.432Z,22.93
2017-08-27T21:41:23.761Z,22.90
2017-08-27T21:43:50.180Z,22.93
2017-08-27T21:46:16.740Z,22.95
2017-08-27T21:48:43.367Z,22.99
2017-08-27T21:51:09.808Z,22.91
2017-08-27T21:53:36.964Z,22.92
2017-08-27T21:56:03.497Z,22.84
2017-08-27T21:58:29.910Z,22.70
2017-08-27T22:00:56.371Z,22.51
2017-08-27T22:03:22.746Z,22.37
2017-08-27T22:05:49.219Z,22.35
2017-08-27T22:08:15.658Z,22.43
2017-08-27T22:10:42.781Z,22.50
2017-08-27T22:13:09.242Z,22.51
2017-08-27T22:15:35.799Z,22.53
2017-08-27T22:18:02.237Z,22.49
2017-08-27T22:20:28.688Z,22.45
2017-08-27T22:22:55.155Z,22.31
2017-08-27T22:25:21.631Z,22.20
2017-08-27T22:27:48.750Z,22.15
2017-08-27T22:30:15.165Z,22.07
2017-08-27T22:32:41.659Z,22.04
2017-08-27T22:35:08.302Z,22.11
2017-08-27T22:37:34.736Z,22.11
2017-08-27T22:40:01.114Z,22.16
2017-08-27T22:42:27.488Z,22.16
2017-08-27T22:44:54.759Z,22.16
2017-08-27T22:47:21.156Z,21.99
2017-08-27T22:49:47.606Z,21.86
2017-08-27T22:52:14.079Z,21.65
2017-08-27T22:54:40.599Z,21.79
2017-08-27T22:57:07.037Z,21.80
2017-08-27T22:59:33.472Z,21.89
2017-08-27T23:02:00.724Z,21.93
2017-08-27T23:04:27.103Z,21.82
2017-08-27T23:06:53.582Z,21.97
2017-08-27T23:09:20.026Z,21.75
2017-08-27T23:11:46.468Z,21.84
2017-08-27T23:14:12.936Z,21.86
2017-08-27T23:16:39.388Z,21.88
2017-08-27T23:19:06.544Z,21.83
2017-08-27T23:21:32.986Z,21.75
2017-08-27T23:23:59.411Z,21.67
2017-08-27T23:26:25.791Z,21.62
2017-08-27T23:28:52.225Z,21.45
2017-08-27T23:31:18.660Z,21.31
2017-08-27T23:33:45.043Z,21.32
2017-08-27T23:36:12.556Z,21.31
2017-08-27T23:38:38.990Z,21.18
2017-08-27T23:41:05.424Z,21.10
2017-08-27T23:43:31.798Z,21.21
2017-08-27T23:45:58.248Z,21.12
2017-08-27T23:48:24.729Z,21.09
2017-08-27T23:50:51.125Z,21.08
2017-08-27T23:53:18.292Z,21.11
2017-08-27T23:55:44.750Z,21.16
2017-08-27T23:58:11.146Z,21.17
